sensor_id;sensor_type;location;lat;lon;timestamp;temperature;humidity
39315;DHT22;28703;44.412;11.918;2023-12-04T00:00:48;4.70;99.90
39315;DHT22;28703;44.412;11.918;2023-12-04T00:03:14;4.70;99.90
39315;DHT22;28703;44.412;11.918;2023-12-04T00:05:42;4.70;99.90
39315;DHT22;28703;44.412;11.918;2023-12-04T00:08:11;4.70;99.90
39315;DHT22;28703;44.412;11.918;2023-12-04T00:10:37;4.60;99.90
39315;DHT22;28703;44.412;11.918;2023-12-04T00:13:03;4.60;99.90
39315;DHT22;28703;44.412;11.918;2023-12-04T00:15:29;4.60;99.90
39315;DHT22;28703;44.412;11.918;2023-12-04T00:17:54;4.60;99.90
39315;DHT22;28703;44.412;11.918;2023-12-04T00:20:20;4.60;99.90
39315;DHT22;28703;44.412;11.918;2023-12-04T00:22:46;4.70;99.90
39315;DHT22;28703;44.412;11.918;2023-12-04T00:25:11;4.70;99.90
39315;DHT22;28703;44.412;11.918;2023-12-04T00:27:37;4.70;99.90
39315;DHT22;28703;44.412;11.918;2023-12-04T00:30:04;4.70;99.90
39315;DHT22;28703;44.412;11.918;2023-12-04T00:32:30;4.70;99.90
39315;DHT22;28703;44.412;11.918;2023-12-04T00:34:56;4.70;99.90
39315;DHT22;28703;44.412;11.918;2023-12-04T00:37:22;4.70;99.90
39315;DHT22;28703;44.412;11.918;2023-12-04T00:39:48;4.70;99.90
39315;DHT22;28703;44.412;11.918;2023-12-04T00:42:13;4.70;99.90
39315;DHT22;28703;44.412;11.918;2023-12-04T00:44:39;4.80;99.90
39315;DHT22;28703;44.412;11.918;2023-12-04T00:47:05;4.80;99.90
39315;DHT22;28703;44.412;11.918;2023-12-04T00:49:31;4.80;99.90
39315;DHT22;28703;44.412;11.918;2023-12-04T00:51:57;4.80;99.90
39315;DHT22;28703;44.412;11.918;2023-12-04T00:54:22;4.80;99.90
39315;DHT22;28703;44.412;11.918;2023-12-04T00:56:48;4.80;99.90
39315;DHT22;28703;44.412;11.918;2023-12-04T00:59:14;4.90;99.90
39315;DHT22;28703;44.412;11.918;2023-12-04T01:01:40;4.90;99.90
39315;DHT22;28703;44.412;11.918;2023-12-04T01:04:05;4.90;99.90
39315;DHT22;28703;44.412;11.918;2023-12-04T01:06:31;4.90;99.90
39315;DHT22;28703;44.412;11.918;2023-12-04T01:08:57;4.90;99.90
39315;DHT22;28703;44.412;11.918;2023-12-04T01:11:23;4.90;99.90
39315;DHT22;28703;44.412;11.918;2023-12-04T01:13:49;4.90;99.90
39315;DHT22;28703;44.412;11.918;2023-12-04T01:16:15;4.90;99.90
39315;DHT22;28703;44.412;11.918;2023-12-04T01:18:42;4.90;99.90
39315;DHT22;28703;44.412;11.918;2023-12-04T01:21:08;4.90;99.90
39315;DHT22;28703;44.412;11.918;2023-12-04T01:23:35;4.90;99.90
39315;DHT22;28703;44.412;11.918;2023-12-04T01:26:04;4.90;99.90
39315;DHT22;28703;44.412;11.918;2023-12-04T01:28:30;4.90;99.90
39315;DHT22;28703;44.412;11.918;2023-12-04T01:30:56;4.90;99.90
39315;DHT22;28703;44.412;11.918;2023-12-04T01:33:22;4.90;99.90
39315;DHT22;28703;44.412;11.918;2023-12-04T01:35:47;5.00;99.90
39315;DHT22;28703;44.412;11.918;2023-12-04T01:38:13;5.00;99.90
39315;DHT22;28703;44.412;11.918;2023-12-04T01:40:39;5.00;99.90
39315;DHT22;28703;44.412;11.918;2023-12-04T01:43:05;5.00;99.90
39315;DHT22;28703;44.412;11.918;2023-12-04T01:45:31;5.00;99.90
39315;DHT22;28703;44.412;11.918;2023-12-04T01:47:58;5.00;99.90
39315;DHT22;28703;44.412;11.918;2023-12-04T01:50:24;5.00;99.90
39315;DHT22;28703;44.412;11.918;2023-12-04T01:52:51;5.00;99.90
39315;DHT22;28703;44.412;11.918;2023-12-04T01:55:17;5.00;99.90
39315;DHT22;28703;44.412;11.918;2023-12-04T01:57:44;5.00;99.90
39315;DHT22;28703;44.412;11.918;2023-12-04T02:00:10;5.10;99.90
39315;DHT22;28703;44.412;11.918;2023-12-04T02:02:39;5.00;99.90
39315;DHT22;28703;44.412;11.918;2023-12-04T02:05:07;5.00;99.90
39315;DHT22;28703;44.412;11.918;2023-12-04T02:07:34;5.00;99.90
39315;DHT22;28703;44.412;11.918;2023-12-04T02:09:59;5.00;99.90
39315;DHT22;28703;44.412;11.918;2023-12-04T02:12:25;5.00;99.90
39315;DHT22;28703;44.412;11.918;2023-12-04T02:14:52;5.00;99.90
39315;DHT22;28703;44.412;11.918;2023-12-04T02:17:18;5.00;99.90
39315;DHT22;28703;44.412;11.918;2023-12-04T02:19:45;4.90;99.90
39315;DHT22;28703;44.412;11.918;2023-12-04T02:22:11;4.90;99.90
39315;DHT22;28703;44.412;11.918;2023-12-04T02:24:36;5.00;99.90
39315;DHT22;28703;44.412;11.918;2023-12-04T02:27:32;4.90;99.90
39315;DHT22;28703;44.412;11.918;2023-12-04T02:30:00;4.90;99.90
39315;DHT22;28703;44.412;11.918;2023-12-04T02:32:29;4.80;99.90
39315;DHT22;28703;44.412;11.918;2023-12-04T02:34:57;4.80;99.90
39315;DHT22;28703;44.412;11.918;2023-12-04T02:37:26;4.80;99.90
39315;DHT22;28703;44.412;11.918;2023-12-04T02:39:52;4.80;99.90
39315;DHT22;28703;44.412;11.918;2023-12-04T02:42:21;4.80;99.90
39315;DHT22;28703;44.412;11.918;2023-12-04T02:44:47;4.80;99.90
39315;DHT22;28703;44.412;11.918;2023-12-04T02:47:14;4.80;99.90
39315;DHT22;28703;44.412;11.918;2023-12-04T02:49:40;4.70;99.90
39315;DHT22;28703;44.412;11.918;2023-12-04T02:52:05;4.80;99.90
39315;DHT22;28703;44.412;11.918;2023-12-04T02:54:31;4.80;99.90
39315;DHT22;28703;44.412;11.918;2023-12-04T02:56:57;4.80;99.90
39315;DHT22;28703;44.412;11.918;2023-12-04T02:59:23;4.80;99.90
39315;DHT22;28703;44.412;11.918;2023-12-04T03:01:48;4.80;99.90
39315;DHT22;28703;44.412;11.918;2023-12-04T03:04:14;4.80;99.90
39315;DHT22;28703;44.412;11.918;2023-12-04T03:06:40;4.80;99.90
39315;DHT22;28703;44.412;11.918;2023-12-04T03:09:06;4.80;99.90
39315;DHT22;28703;44.412;11.918;2023-12-04T03:11:31;4.70;99.90
39315;DHT22;28703;44.412;11.918;2023-12-04T03:13:59;4.70;99.90
39315;DHT22;28703;44.412;11.918;2023-12-04T03:16:25;4.70;99.90
39315;DHT22;28703;44.412;11.918;2023-12-04T03:18:51;4.70;99.90
39315;DHT22;28703;44.412;11.918;2023-12-04T03:21:17;4.70;99.90
39315;DHT22;28703;44.412;11.918;2023-12-04T03:23:42;4.70;99.90
39315;DHT22;28703;44.412;11.918;2023-12-04T03:26:09;4.60;99.90
39315;DHT22;28703;44.412;11.918;2023-12-04T03:28:34;4.50;99.90
39315;DHT22;28703;44.412;11.918;2023-12-04T03:31:01;4.40;99.90
39315;DHT22;28703;44.412;11.918;2023-12-04T03:33:27;4.40;99.90
39315;DHT22;28703;44.412;11.918;2023-12-04T03:35:53;4.40;99.90
39315;DHT22;28703;44.412;11.918;2023-12-04T03:38:18;4.40;99.90
39315;DHT22;28703;44.412;11.918;2023-12-04T03:40:44;4.40;99.90
39315;DHT22;28703;44.412;11.918;2023-12-04T03:43:10;4.40;99.90
39315;DHT22;28703;44.412;11.918;2023-12-04T03:45:36;4.40;99.90
39315;DHT22;28703;44.412;11.918;2023-12-04T03:48:01;4.40;99.90
39315;DHT22;28703;44.412;11.918;2023-12-04T03:50:27;4.40;99.90
39315;DHT22;28703;44.412;11.918;2023-12-04T03:52:53;4.40;99.90
39315;DHT22;28703;44.412;11.918;2023-12-04T03:55:19;4.40;99.90
39315;DHT22;28703;44.412;11.918;2023-12-04T03:57:45;4.40;99.90
39315;DHT22;28703;44.412;11.918;2023-12-04T04:00:11;4.40;99.90
39315;DHT22;28703;44.412;11.918;2023-12-04T04:02:43;4.40;99.90
39315;DHT22;28703;44.412;11.918;2023-12-04T04:05:09;4.50;99.90
39315;DHT22;28703;44.412;11.918;2023-12-04T04:07:35;4.40;99.90
39315;DHT22;28703;44.412;11.918;2023-12-04T04:10:01;4.30;99.90
39315;DHT22;28703;44.412;11.918;2023-12-04T04:12:27;4.30;99.90
39315;DHT22;28703;44.412;11.918;2023-12-04T04:14:53;4.40;99.90
39315;DHT22;28703;44.412;11.918;2023-12-04T04:17:19;4.40;99.90
39315;DHT22;28703;44.412;11.918;2023-12-04T04:19:45;4.40;99.90
39315;DHT22;28703;44.412;11.918;2023-12-04T04:22:11;4.40;99.90
39315;DHT22;28703;44.412;11.918;2023-12-04T04:24:36;4.40;99.90
39315;DHT22;28703;44.412;11.918;2023-12-04T04:27:02;4.30;99.90
39315;DHT22;28703;44.412;11.918;2023-12-04T04:29:28;4.20;99.90
39315;DHT22;28703;44.412;11.918;2023-12-04T04:31:54;4.20;99.90
39315;DHT22;28703;44.412;11.918;2023-12-04T04:34:22;4.20;99.90
39315;DHT22;28703;44.412;11.918;2023-12-04T04:36:48;4.20;99.90
39315;DHT22;28703;44.412;11.918;2023-12-04T04:39:14;4.20;99.90
39315;DHT22;28703;44.412;11.918;2023-12-04T04:41:40;4.10;99.90
39315;DHT22;28703;44.412;11.918;2023-12-04T04:44:06;4.10;99.90
39315;DHT22;28703;44.412;11.918;2023-12-04T04:46:32;4.10;99.90
39315;DHT22;28703;44.412;11.918;2023-12-04T04:48:58;4.10;99.90
39315;DHT22;28703;44.412;11.918;2023-12-04T04:51:23;4.00;99.90
39315;DHT22;28703;44.412;11.918;2023-12-04T04:53:49;4.10;99.90
39315;DHT22;28703;44.412;11.918;2023-12-04T04:56:16;4.00;99.90
39315;DHT22;28703;44.412;11.918;2023-12-04T04:58:42;4.00;99.90
39315;DHT22;28703;44.412;11.918;2023-12-04T05:01:08;4.00;99.90
39315;DHT22;28703;44.412;11.918;2023-12-04T05:03:34;4.00;99.90
39315;DHT22;28703;44.412;11.918;2023-12-04T05:06:00;4.00;99.90
39315;DHT22;28703;44.412;11.918;2023-12-04T05:08:26;3.90;99.90
39315;DHT22;28703;44.412;11.918;2023-12-04T05:10:51;4.00;99.90
39315;DHT22;28703;44.412;11.918;2023-12-04T05:13:17;4.00;99.90
39315;DHT22;28703;44.412;11.918;2023-12-04T05:15:43;4.00;99.90
39315;DHT22;28703;44.412;11.918;2023-12-04T05:18:09;3.90;99.90
39315;DHT22;28703;44.412;11.918;2023-12-04T05:20:34;3.90;99.90
39315;DHT22;28703;44.412;11.918;2023-12-04T05:23:00;3.90;99.90
39315;DHT22;28703;44.412;11.918;2023-12-04T05:25:26;3.90;99.90
39315;DHT22;28703;44.412;11.918;2023-12-04T05:27:52;3.90;99.90
39315;DHT22;28703;44.412;11.918;2023-12-04T05:30:18;3.90;99.90
39315;DHT22;28703;44.412;11.918;2023-12-04T05:32:44;3.90;99.90
39315;DHT22;28703;44.412;11.918;2023-12-04T05:35:09;3.80;99.90
39315;DHT22;28703;44.412;11.918;2023-12-04T05:37:35;3.80;99.90
39315;DHT22;28703;44.412;11.918;2023-12-04T05:40:01;3.80;99.90
39315;DHT22;28703;44.412;11.918;2023-12-04T05:42:29;3.80;99.90
39315;DHT22;28703;44.412;11.918;2023-12-04T05:44:54;3.80;99.90
39315;DHT22;28703;44.412;11.918;2023-12-04T05:47:21;3.80;99.90
39315;DHT22;28703;44.412;11.918;2023-12-04T05:49:47;3.80;99.90
39315;DHT22;28703;44.412;11.918;2023-12-04T05:52:12;3.80;99.90
39315;DHT22;28703;44.412;11.918;2023-12-04T05:54:38;3.80;99.90
39315;DHT22;28703;44.412;11.918;2023-12-04T05:57:04;3.80;99.90
39315;DHT22;28703;44.412;11.918;2023-12-04T05:59:30;3.80;99.90
39315;DHT22;28703;44.412;11.918;2023-12-04T06:01:56;3.70;99.90
39315;DHT22;28703;44.412;11.918;2023-12-04T06:04:22;3.70;99.90
39315;DHT22;28703;44.412;11.918;2023-12-04T06:06:47;3.70;99.90
39315;DHT22;28703;44.412;11.918;2023-12-04T06:09:13;3.70;99.90
39315;DHT22;28703;44.412;11.918;2023-12-04T06:11:41;3.70;99.90
39315;DHT22;28703;44.412;11.918;2023-12-04T06:14:07;3.80;99.90
39315;DHT22;28703;44.412;11.918;2023-12-04T06:16:33;3.80;99.90
39315;DHT22;28703;44.412;11.918;2023-12-04T06:18:59;3.80;99.90
39315;DHT22;28703;44.412;11.918;2023-12-04T06:21:24;3.80;99.90
39315;DHT22;28703;44.412;11.918;2023-12-04T06:23:50;3.80;99.90
39315;DHT22;28703;44.412;11.918;2023-12-04T06:26:16;3.80;99.90
39315;DHT22;28703;44.412;11.918;2023-12-04T06:28:45;3.90;99.90
39315;DHT22;28703;44.412;11.918;2023-12-04T06:31:11;3.90;99.90
39315;DHT22;28703;44.412;11.918;2023-12-04T06:33:37;3.90;99.90
39315;DHT22;28703;44.412;11.918;2023-12-04T06:36:05;4.00;99.90
39315;DHT22;28703;44.412;11.918;2023-12-04T06:38:32;4.00;99.90
39315;DHT22;28703;44.412;11.918;2023-12-04T06:41:01;4.00;99.90
39315;DHT22;28703;44.412;11.918;2023-12-04T06:43:27;4.00;99.90
39315;DHT22;28703;44.412;11.918;2023-12-04T06:45:54;4.00;99.90
39315;DHT22;28703;44.412;11.918;2023-12-04T06:48:22;4.00;99.90
39315;DHT22;28703;44.412;11.918;2023-12-04T06:50:48;4.00;99.90
39315;DHT22;28703;44.412;11.918;2023-12-04T06:53:14;4.00;99.90
39315;DHT22;28703;44.412;11.918;2023-12-04T06:55:40;4.00;99.90
39315;DHT22;28703;44.412;11.918;2023-12-04T06:58:06;4.00;99.90
39315;DHT22;28703;44.412;11.918;2023-12-04T07:00:31;4.00;99.90
39315;DHT22;28703;44.412;11.918;2023-12-04T07:02:57;4.10;99.90
39315;DHT22;28703;44.412;11.918;2023-12-04T07:05:23;4.10;99.90
39315;DHT22;28703;44.412;11.918;2023-12-04T07:07:49;4.10;99.90
39315;DHT22;28703;44.412;11.918;2023-12-04T07:10:14;4.10;99.90
39315;DHT22;28703;44.412;11.918;2023-12-04T07:12:41;4.20;99.90
39315;DHT22;28703;44.412;11.918;2023-12-04T07:15:08;4.20;99.90
39315;DHT22;28703;44.412;11.918;2023-12-04T07:17:38;4.20;99.90
39315;DHT22;28703;44.412;11.918;2023-12-04T07:20:05;4.20;99.90
39315;DHT22;28703;44.412;11.918;2023-12-04T07:22:34;4.30;99.90
39315;DHT22;28703;44.412;11.918;2023-12-04T07:25:00;4.40;99.90
39315;DHT22;28703;44.412;11.918;2023-12-04T07:27:26;4.40;99.90
39315;DHT22;28703;44.412;11.918;2023-12-04T07:29:52;4.40;99.90
39315;DHT22;28703;44.412;11.918;2023-12-04T07:32:17;4.40;99.90
39315;DHT22;28703;44.412;11.918;2023-12-04T07:34:44;4.50;99.90
39315;DHT22;28703;44.412;11.918;2023-12-04T07:37:10;4.50;99.90
39315;DHT22;28703;44.412;11.918;2023-12-04T07:39:35;4.50;99.90
39315;DHT22;28703;44.412;11.918;2023-12-04T07:42:01;4.50;99.90
39315;DHT22;28703;44.412;11.918;2023-12-04T07:44:27;4.50;99.90
39315;DHT22;28703;44.412;11.918;2023-12-04T07:46:53;4.60;99.90
39315;DHT22;28703;44.412;11.918;2023-12-04T07:49:19;4.60;99.90
39315;DHT22;28703;44.412;11.918;2023-12-04T07:51:45;4.60;99.90
39315;DHT22;28703;44.412;11.918;2023-12-04T07:54:10;4.70;99.90
39315;DHT22;28703;44.412;11.918;2023-12-04T07:56:37;4.70;99.90
39315;DHT22;28703;44.412;11.918;2023-12-04T07:59:03;4.70;99.90
39315;DHT22;28703;44.412;11.918;2023-12-04T08:01:28;4.70;99.90
39315;DHT22;28703;44.412;11.918;2023-12-04T08:03:54;4.70;99.90
39315;DHT22;28703;44.412;11.918;2023-12-04T08:06:20;4.70;99.90
39315;DHT22;28703;44.412;11.918;2023-12-04T08:08:46;4.70;99.90
39315;DHT22;28703;44.412;11.918;2023-12-04T08:11:11;4.80;99.90
39315;DHT22;28703;44.412;11.918;2023-12-04T08:13:39;4.80;99.90
39315;DHT22;28703;44.412;11.918;2023-12-04T08:16:12;4.80;99.90
39315;DHT22;28703;44.412;11.918;2023-12-04T08:18:38;4.80;99.90
39315;DHT22;28703;44.412;11.918;2023-12-04T08:21:04;4.80;99.90
39315;DHT22;28703;44.412;11.918;2023-12-04T08:23:29;4.90;99.90
39315;DHT22;28703;44.412;11.918;2023-12-04T08:25:56;4.90;99.90
39315;DHT22;28703;44.412;11.918;2023-12-04T08:28:22;4.90;99.90
39315;DHT22;28703;44.412;11.918;2023-12-04T08:30:48;4.90;99.90
39315;DHT22;28703;44.412;11.918;2023-12-04T08:33:14;4.90;99.90
39315;DHT22;28703;44.412;11.918;2023-12-04T08:35:40;5.00;99.90
39315;DHT22;28703;44.412;11.918;2023-12-04T08:38:06;4.90;99.90
39315;DHT22;28703;44.412;11.918;2023-12-04T08:40:32;4.90;99.90
39315;DHT22;28703;44.412;11.918;2023-12-04T08:42:58;4.90;99.90
39315;DHT22;28703;44.412;11.918;2023-12-04T08:45:24;4.80;99.90
39315;DHT22;28703;44.412;11.918;2023-12-04T08:47:50;4.80;99.90
39315;DHT22;28703;44.412;11.918;2023-12-04T08:50:16;4.80;99.90
39315;DHT22;28703;44.412;11.918;2023-12-04T08:52:42;4.90;99.90
39315;DHT22;28703;44.412;11.918;2023-12-04T08:55:09;5.00;99.90
39315;DHT22;28703;44.412;11.918;2023-12-04T08:57:35;5.00;99.90
39315;DHT22;28703;44.412;11.918;2023-12-04T09:00:00;4.90;99.90
39315;DHT22;28703;44.412;11.918;2023-12-04T09:02:26;5.00;99.90
39315;DHT22;28703;44.412;11.918;2023-12-04T09:04:52;5.00;99.90
39315;DHT22;28703;44.412;11.918;2023-12-04T09:07:18;5.10;99.90
39315;DHT22;28703;44.412;11.918;2023-12-04T09:09:43;5.10;99.90
39315;DHT22;28703;44.412;11.918;2023-12-04T09:12:10;5.20;99.90
39315;DHT22;28703;44.412;11.918;2023-12-04T09:14:35;5.30;99.90
39315;DHT22;28703;44.412;11.918;2023-12-04T09:17:01;5.30;99.90
39315;DHT22;28703;44.412;11.918;2023-12-04T09:19:29;5.30;99.90
39315;DHT22;28703;44.412;11.918;2023-12-04T09:21:55;5.40;99.90
39315;DHT22;28703;44.412;11.918;2023-12-04T09:24:22;5.40;99.90
39315;DHT22;28703;44.412;11.918;2023-12-04T09:26:49;5.40;99.90
39315;DHT22;28703;44.412;11.918;2023-12-04T09:29:15;5.50;99.90
39315;DHT22;28703;44.412;11.918;2023-12-04T09:31:43;5.50;99.90
39315;DHT22;28703;44.412;11.918;2023-12-04T09:34:09;5.50;99.90
39315;DHT22;28703;44.412;11.918;2023-12-04T09:36:35;5.50;99.90
39315;DHT22;28703;44.412;11.918;2023-12-04T09:39:01;5.50;99.90
39315;DHT22;28703;44.412;11.918;2023-12-04T09:41:27;5.50;99.90
39315;DHT22;28703;44.412;11.918;2023-12-04T09:43:53;5.50;99.90
39315;DHT22;28703;44.412;11.918;2023-12-04T09:46:19;5.50;99.90
39315;DHT22;28703;44.412;11.918;2023-12-04T09:48:45;5.60;99.90
39315;DHT22;28703;44.412;11.918;2023-12-04T09:51:12;5.60;99.90
39315;DHT22;28703;44.412;11.918;2023-12-04T09:53:40;5.70;99.90
39315;DHT22;28703;44.412;11.918;2023-12-04T09:56:07;5.70;99.90
39315;DHT22;28703;44.412;11.918;2023-12-04T09:58:37;5.80;99.90
39315;DHT22;28703;44.412;11.918;2023-12-04T10:01:06;5.80;99.90
39315;DHT22;28703;44.412;11.918;2023-12-04T10:03:33;5.80;99.90
39315;DHT22;28703;44.412;11.918;2023-12-04T10:05:59;5.80;99.90
39315;DHT22;28703;44.412;11.918;2023-12-04T10:08:25;5.80;99.90
39315;DHT22;28703;44.412;11.918;2023-12-04T10:10:51;5.80;99.90
39315;DHT22;28703;44.412;11.918;2023-12-04T10:13:17;5.80;99.90
39315;DHT22;28703;44.412;11.918;2023-12-04T10:15:47;5.80;99.90
39315;DHT22;28703;44.412;11.918;2023-12-04T10:18:33;5.70;99.90
39315;DHT22;28703;44.412;11.918;2023-12-04T10:20:59;5.70;99.90
39315;DHT22;28703;44.412;11.918;2023-12-04T10:23:46;5.60;99.90
39315;DHT22;28703;44.412;11.918;2023-12-04T10:26:14;5.70;99.90
39315;DHT22;28703;44.412;11.918;2023-12-04T10:29:03;5.70;99.90
39315;DHT22;28703;44.412;11.918;2023-12-04T10:31:38;5.80;99.90
39315;DHT22;28703;44.412;11.918;2023-12-04T10:34:03;5.80;99.90
39315;DHT22;28703;44.412;11.918;2023-12-04T10:36:36;5.80;99.90
39315;DHT22;28703;44.412;11.918;2023-12-04T10:39:02;5.90;99.90
39315;DHT22;28703;44.412;11.918;2023-12-04T10:41:31;5.90;99.90
39315;DHT22;28703;44.412;11.918;2023-12-04T10:43:57;6.00;99.90
39315;DHT22;28703;44.412;11.918;2023-12-04T10:46:27;5.90;99.90
39315;DHT22;28703;44.412;11.918;2023-12-04T10:48:54;5.90;99.90
39315;DHT22;28703;44.412;11.918;2023-12-04T10:51:20;6.00;99.90
39315;DHT22;28703;44.412;11.918;2023-12-04T10:53:49;6.10;99.90
39315;DHT22;28703;44.412;11.918;2023-12-04T10:56:22;6.10;99.90
39315;DHT22;28703;44.412;11.918;2023-12-04T10:58:51;6.20;99.90
39315;DHT22;28703;44.412;11.918;2023-12-04T11:01:19;6.20;99.90
39315;DHT22;28703;44.412;11.918;2023-12-04T11:03:48;6.20;99.90
39315;DHT22;28703;44.412;11.918;2023-12-04T11:06:16;6.20;99.90
39315;DHT22;28703;44.412;11.918;2023-12-04T11:08:50;6.20;99.90
39315;DHT22;28703;44.412;11.918;2023-12-04T11:11:24;6.20;99.90
39315;DHT22;28703;44.412;11.918;2023-12-04T11:13:54;6.20;99.90
39315;DHT22;28703;44.412;11.918;2023-12-04T11:16:27;6.30;99.90
39315;DHT22;28703;44.412;11.918;2023-12-04T11:19:31;6.30;99.90
39315;DHT22;28703;44.412;11.918;2023-12-04T11:22:02;6.20;99.90
39315;DHT22;28703;44.412;11.918;2023-12-04T11:24:28;6.20;99.90
39315;DHT22;28703;44.412;11.918;2023-12-04T11:26:55;6.20;99.90
39315;DHT22;28703;44.412;11.918;2023-12-04T11:29:22;6.20;99.90
39315;DHT22;28703;44.412;11.918;2023-12-04T11:31:49;6.20;99.90
39315;DHT22;28703;44.412;11.918;2023-12-04T11:34:14;6.20;99.90
39315;DHT22;28703;44.412;11.918;2023-12-04T11:36:40;6.30;99.90
39315;DHT22;28703;44.412;11.918;2023-12-04T11:39:10;6.30;99.90
39315;DHT22;28703;44.412;11.918;2023-12-04T11:41:36;6.40;99.90
39315;DHT22;28703;44.412;11.918;2023-12-04T11:44:03;6.40;99.90
39315;DHT22;28703;44.412;11.918;2023-12-04T11:46:29;6.40;99.90
39315;DHT22;28703;44.412;11.918;2023-12-04T11:48:57;6.50;99.90
39315;DHT22;28703;44.412;11.918;2023-12-04T11:54:10;6.60;99.90
39315;DHT22;28703;44.412;11.918;2023-12-04T11:56:39;6.60;99.90
39315;DHT22;28703;44.412;11.918;2023-12-04T11:59:07;6.60;99.90
39315;DHT22;28703;44.412;11.918;2023-12-04T12:01:36;6.60;99.90
39315;DHT22;28703;44.412;11.918;2023-12-04T12:04:06;6.60;99.90
39315;DHT22;28703;44.412;11.918;2023-12-04T12:06:32;6.50;99.90
39315;DHT22;28703;44.412;11.918;2023-12-04T12:08:57;6.50;99.90
39315;DHT22;28703;44.412;11.918;2023-12-04T12:11:24;6.50;99.90
39315;DHT22;28703;44.412;11.918;2023-12-04T12:13:50;6.50;99.90
39315;DHT22;28703;44.412;11.918;2023-12-04T12:16:18;6.50;99.90
39315;DHT22;28703;44.412;11.918;2023-12-04T12:18:44;6.60;99.90
39315;DHT22;28703;44.412;11.918;2023-12-04T12:21:10;6.50;99.90
39315;DHT22;28703;44.412;11.918;2023-12-04T12:23:36;6.60;99.90
39315;DHT22;28703;44.412;11.918;2023-12-04T12:26:02;6.60;99.90
39315;DHT22;28703;44.412;11.918;2023-12-04T12:28:28;6.60;99.90
39315;DHT22;28703;44.412;11.918;2023-12-04T12:30:55;6.60;99.90
39315;DHT22;28703;44.412;11.918;2023-12-04T12:33:21;6.60;99.90
39315;DHT22;28703;44.412;11.918;2023-12-04T12:35:48;6.60;99.90
39315;DHT22;28703;44.412;11.918;2023-12-04T12:38:15;6.50;99.90
39315;DHT22;28703;44.412;11.918;2023-12-04T12:40:41;6.60;99.90
39315;DHT22;28703;44.412;11.918;2023-12-04T12:43:09;6.60;99.90
39315;DHT22;28703;44.412;11.918;2023-12-04T12:45:46;6.60;99.90
39315;DHT22;28703;44.412;11.918;2023-12-04T12:48:16;6.60;99.90
39315;DHT22;28703;44.412;11.918;2023-12-04T12:50:43;6.60;99.90
39315;DHT22;28703;44.412;11.918;2023-12-04T12:53:12;6.60;99.90
39315;DHT22;28703;44.412;11.918;2023-12-04T12:55:40;6.50;99.90
39315;DHT22;28703;44.412;11.918;2023-12-04T12:58:06;6.50;99.90
39315;DHT22;28703;44.412;11.918;2023-12-04T13:00:35;6.40;99.90
39315;DHT22;28703;44.412;11.918;2023-12-04T13:03:02;6.40;99.90
39315;DHT22;28703;44.412;11.918;2023-12-04T13:05:28;6.40;99.90
39315;DHT22;28703;44.412;11.918;2023-12-04T13:07:54;6.40;99.90
39315;DHT22;28703;44.412;11.918;2023-12-04T13:10:21;6.40;99.90
39315;DHT22;28703;44.412;11.918;2023-12-04T13:12:49;6.40;99.90
39315;DHT22;28703;44.412;11.918;2023-12-04T13:15:18;6.40;99.90
39315;DHT22;28703;44.412;11.918;2023-12-04T13:17:43;6.40;99.90
39315;DHT22;28703;44.412;11.918;2023-12-04T13:20:10;6.40;99.90
39315;DHT22;28703;44.412;11.918;2023-12-04T13:22:39;6.40;99.90
39315;DHT22;28703;44.412;11.918;2023-12-04T13:25:05;6.50;99.90
39315;DHT22;28703;44.412;11.918;2023-12-04T13:27:33;6.50;99.90
39315;DHT22;28703;44.412;11.918;2023-12-04T13:29:59;6.50;99.90
39315;DHT22;28703;44.412;11.918;2023-12-04T13:32:25;6.50;99.90
39315;DHT22;28703;44.412;11.918;2023-12-04T13:34:50;6.40;99.90
39315;DHT22;28703;44.412;11.918;2023-12-04T13:37:16;6.40;99.90
39315;DHT22;28703;44.412;11.918;2023-12-04T13:39:43;6.50;99.90
39315;DHT22;28703;44.412;11.918;2023-12-04T13:42:17;6.50;99.90
39315;DHT22;28703;44.412;11.918;2023-12-04T13:45:01;6.50;99.90
39315;DHT22;28703;44.412;11.918;2023-12-04T13:47:27;6.40;99.90
39315;DHT22;28703;44.412;11.918;2023-12-04T13:49:53;6.50;99.90
39315;DHT22;28703;44.412;11.918;2023-12-04T13:52:21;6.50;99.90
39315;DHT22;28703;44.412;11.918;2023-12-04T13:54:48;6.50;99.90
39315;DHT22;28703;44.412;11.918;2023-12-04T13:57:15;6.50;99.90
39315;DHT22;28703;44.412;11.918;2023-12-04T13:59:47;6.50;99.90
39315;DHT22;28703;44.412;11.918;2023-12-04T14:02:13;6.50;99.90
39315;DHT22;28703;44.412;11.918;2023-12-04T14:04:40;6.50;99.90
39315;DHT22;28703;44.412;11.918;2023-12-04T14:07:06;6.40;99.90
39315;DHT22;28703;44.412;11.918;2023-12-04T14:09:34;6.40;99.90
39315;DHT22;28703;44.412;11.918;2023-12-04T14:12:00;6.40;99.90
39315;DHT22;28703;44.412;11.918;2023-12-04T14:14:27;6.40;99.90
39315;DHT22;28703;44.412;11.918;2023-12-04T14:16:52;6.40;99.90
39315;DHT22;28703;44.412;11.918;2023-12-04T14:19:18;6.40;99.90
39315;DHT22;28703;44.412;11.918;2023-12-04T14:21:47;6.40;99.90
39315;DHT22;28703;44.412;11.918;2023-12-04T14:24:16;6.40;99.90
39315;DHT22;28703;44.412;11.918;2023-12-04T14:26:43;6.30;99.90
39315;DHT22;28703;44.412;11.918;2023-12-04T14:29:09;6.20;99.90
39315;DHT22;28703;44.412;11.918;2023-12-04T14:31:35;6.20;99.90
39315;DHT22;28703;44.412;11.918;2023-12-04T14:34:01;6.20;99.90
39315;DHT22;28703;44.412;11.918;2023-12-04T14:36:28;6.20;99.90
39315;DHT22;28703;44.412;11.918;2023-12-04T14:38:56;6.10;99.90
39315;DHT22;28703;44.412;11.918;2023-12-04T14:41:22;6.20;99.90
39315;DHT22;28703;44.412;11.918;2023-12-04T14:43:48;6.10;99.90
39315;DHT22;28703;44.412;11.918;2023-12-04T14:46:14;6.20;99.90
39315;DHT22;28703;44.412;11.918;2023-12-04T14:48:39;6.20;99.90
39315;DHT22;28703;44.412;11.918;2023-12-04T14:51:07;6.10;99.90
39315;DHT22;28703;44.412;11.918;2023-12-04T14:53:32;6.20;99.90
39315;DHT22;28703;44.412;11.918;2023-12-04T14:56:29;6.10;99.90
39315;DHT22;28703;44.412;11.918;2023-12-04T14:59:10;6.10;99.90
39315;DHT22;28703;44.412;11.918;2023-12-04T15:01:54;6.00;99.90
39315;DHT22;28703;44.412;11.918;2023-12-04T15:04:39;5.90;99.90
39315;DHT22;28703;44.412;11.918;2023-12-04T15:07:04;5.90;99.90
39315;DHT22;28703;44.412;11.918;2023-12-04T15:09:33;5.90;99.90
39315;DHT22;28703;44.412;11.918;2023-12-04T15:12:17;5.90;99.90
39315;DHT22;28703;44.412;11.918;2023-12-04T15:14:53;5.90;99.90
39315;DHT22;28703;44.412;11.918;2023-12-04T15:17:37;5.90;99.90
39315;DHT22;28703;44.412;11.918;2023-12-04T15:20:22;5.90;99.90
39315;DHT22;28703;44.412;11.918;2023-12-04T15:22:54;5.80;99.90
39315;DHT22;28703;44.412;11.918;2023-12-04T15:25:20;5.80;99.90
39315;DHT22;28703;44.412;11.918;2023-12-04T15:27:46;5.80;99.90
39315;DHT22;28703;44.412;11.918;2023-12-04T15:30:12;5.80;99.90
39315;DHT22;28703;44.412;11.918;2023-12-04T15:32:39;5.80;99.90